createdAt,value
2022-12-18T00:04:02.126Z,106.75
2022-12-18T00:06:10.296Z,103.85
2022-12-18T00:08:15.064Z,104.25
2022-12-18T00:10:22.744Z,107.00
2022-12-18T00:12:29.905Z,105.20
2022-12-18T00:14:35.339Z,117.43
2022-12-18T00:16:41.372Z,118.50
2022-12-18T00:18:48.972Z,112.05
2022-12-18T00:20:53.735Z,117.25
2022-12-18T00:22:59.336Z,108.75
2022-12-18T00:25:04.206Z,102.43
2022-12-18T00:27:09.509Z,111.72
2022-12-18T00:29:17.410Z,109.20
2022-12-18T00:31:24.358Z,107.88
2022-12-18T00:33:31.568Z,101.15
2022-12-18T00:35:38.952Z,107.07
2022-12-18T00:37:43.903Z,105.53
2022-12-18T00:39:52.429Z,103.53
2022-12-18T00:42:10.822Z,104.28
2022-12-18T00:44:17.863Z,108.30
2022-12-18T00:46:23.716Z,97.18
2022-12-18T00:48:28.508Z,103.68
2022-12-18T00:52:44.052Z,103.60
2022-12-18T00:54:48.851Z,98.22
2022-12-18T00:56:53.699Z,101.45
2022-12-18T00:58:58.507Z,94.70
2022-12-18T01:01:03.379Z,96.10
2022-12-18T01:05:15.011Z,91.38
2022-12-18T01:07:19.853Z,94.10
2022-12-18T01:09:27.335Z,89.97
2022-12-18T01:11:32.175Z,87.20
2022-12-18T01:13:37.316Z,85.38
2022-12-18T01:15:42.708Z,76.97
2022-12-18T01:17:49.257Z,82.00
2022-12-18T01:19:54.174Z,82.38
2022-12-18T01:24:03.777Z,77.90
2022-12-18T01:28:17.211Z,90.05
2022-12-18T01:30:22.119Z,86.32
2022-12-18T01:34:31.566Z,88.68
2022-12-18T01:36:38.622Z,83.70
2022-12-18T01:38:43.441Z,94.88
2022-12-18T01:40:48.181Z,83.45
2022-12-18T01:42:56.910Z,81.50
2022-12-18T01:45:03.242Z,93.05
2022-12-18T01:47:08.378Z,84.90
2022-12-18T01:49:15.494Z,91.25
2022-12-18T01:51:20.807Z,88.55
2022-12-18T01:53:27.573Z,85.60
2022-12-18T01:55:35.155Z,92.03
2022-12-18T01:57:42.990Z,85.80
2022-12-18T01:59:55.147Z,106.65
2022-12-18T02:02:01.045Z,110.22
2022-12-18T02:04:24.200Z,80.93
2022-12-18T02:06:36.587Z,92.93
2022-12-18T02:08:48.369Z,92.07
2022-12-18T02:11:01.089Z,88.72
2022-12-18T02:13:16.188Z,88.05
2022-12-18T02:15:31.134Z,67.90
2022-12-18T02:17:41.068Z,68.20
2022-12-18T02:19:59.279Z,83.22
2022-12-18T02:22:22.626Z,92.38
2022-12-18T02:24:37.055Z,80.00
2022-12-18T02:26:48.935Z,64.47
2022-12-18T02:29:01.961Z,79.30
2022-12-18T02:31:12.692Z,77.03
2022-12-18T02:33:19.189Z,82.10
2022-12-18T02:35:27.728Z,77.65
2022-12-18T02:37:37.603Z,82.15
2022-12-18T02:39:47.146Z,86.78
2022-12-18T02:41:56.282Z,83.28
2022-12-18T02:44:05.973Z,84.35
2022-12-18T02:46:31.116Z,76.97
2022-12-18T02:48:39.178Z,80.85
2022-12-18T02:50:49.161Z,75.25
2022-12-18T02:53:06.969Z,75.38
2022-12-18T02:55:27.607Z,84.30
2022-12-18T02:57:46.644Z,80.03
2022-12-18T03:00:01.482Z,73.45
2022-12-18T03:02:20.059Z,81.95
2022-12-18T03:04:30.326Z,76.43
2022-12-18T03:06:41.434Z,76.90
2022-12-18T03:08:49.225Z,77.55
2022-12-18T03:11:02.097Z,74.78
2022-12-18T03:13:15.774Z,86.68
2022-12-18T03:15:24.895Z,75.55
2022-12-18T03:17:37.872Z,78.88
2022-12-18T03:19:44.933Z,78.90
2022-12-18T03:21:53.346Z,79.03
2022-12-18T03:23:59.442Z,68.00
2022-12-18T03:26:10.937Z,74.70
2022-12-18T03:28:25.471Z,68.47
2022-12-18T03:30:41.214Z,66.72
2022-12-18T03:32:51.783Z,71.97
2022-12-18T03:35:02.252Z,68.70
2022-12-18T03:37:11.237Z,69.93
2022-12-18T03:39:16.191Z,69.25
2022-12-18T03:41:34.517Z,64.82
2022-12-18T03:44:06.126Z,73.88
2022-12-18T03:46:20.860Z,73.22
2022-12-18T03:48:36.535Z,68.13
2022-12-18T03:50:53.603Z,67.05
2022-12-18T03:53:06.675Z,72.30
2022-12-18T03:55:13.622Z,68.93
2022-12-18T03:57:22.411Z,65.07
2022-12-18T03:59:34.383Z,66.63
2022-12-18T04:01:43.689Z,69.35
2022-12-18T04:03:53.134Z,63.85
2022-12-18T04:06:01.460Z,68.88
2022-12-18T04:08:07.535Z,68.20
2022-12-18T04:10:17.633Z,68.95
2022-12-18T04:12:23.432Z,60.08
2022-12-18T04:14:28.327Z,60.60
2022-12-18T04:16:37.870Z,71.03
2022-12-18T04:18:44.680Z,65.93
2022-12-18T04:20:49.971Z,65.93
2022-12-18T04:22:56.223Z,57.72
2022-12-18T04:25:01.641Z,59.80
2022-12-18T04:27:15.751Z,55.03
2022-12-18T04:29:25.550Z,56.97
2022-12-18T04:33:38.443Z,54.42
2022-12-18T04:35:45.737Z,50.22
2022-12-18T04:37:51.964Z,47.97
2022-12-18T04:42:09.527Z,50.95
2022-12-18T04:44:14.430Z,49.15
2022-12-18T04:48:24.486Z,46.97
2022-12-18T04:50:43.889Z,56.85
2022-12-18T04:52:49.617Z,50.13
2022-12-18T04:54:54.434Z,49.88
2022-12-18T04:56:59.223Z,51.38
2022-12-18T04:59:05.057Z,50.00
2022-12-18T05:01:11.138Z,48.13
2022-12-18T05:03:15.897Z,46.50
2022-12-18T05:05:20.803Z,51.05
2022-12-18T05:09:32.886Z,46.28
2022-12-18T05:11:40.843Z,53.05
2022-12-18T05:13:46.485Z,51.45
2022-12-18T05:15:55.228Z,51.78
2022-12-18T05:18:00.405Z,54.70
2022-12-18T05:20:06.008Z,53.97
2022-12-18T05:22:13.804Z,49.97
2022-12-18T05:24:21.203Z,48.80
2022-12-18T05:26:25.993Z,56.53
2022-12-18T05:28:32.561Z,52.53
2022-12-18T05:30:37.423Z,52.30
2022-12-18T05:32:42.600Z,46.13
2022-12-18T05:34:47.344Z,49.33
2022-12-18T05:36:52.439Z,50.75
2022-12-18T05:41:04.441Z,56.22
2022-12-18T05:43:09.722Z,51.08
2022-12-18T05:45:14.611Z,48.53
2022-12-18T05:47:19.441Z,49.80
2022-12-18T05:49:24.379Z,47.85
2022-12-18T05:51:29.210Z,51.67
2022-12-18T05:53:34.050Z,48.47
2022-12-18T05:55:40.089Z,51.13
2022-12-18T05:57:47.564Z,47.47
2022-12-18T05:59:52.561Z,50.70
2022-12-18T06:01:57.581Z,48.85
2022-12-18T06:04:02.509Z,51.42
2022-12-18T06:06:16.051Z,46.85
2022-12-18T06:08:20.996Z,49.78
2022-12-18T06:10:25.772Z,47.10
2022-12-18T06:12:30.527Z,48.00
2022-12-18T06:14:37.890Z,54.45
2022-12-18T06:16:42.938Z,50.88
2022-12-18T06:20:58.821Z,51.38
2022-12-18T06:23:03.838Z,51.38
2022-12-18T06:25:10.100Z,47.70
2022-12-18T06:27:15.155Z,51.97
2022-12-18T06:29:19.960Z,47.53
2022-12-18T06:31:27.491Z,49.78
2022-12-18T06:33:32.590Z,49.97
2022-12-18T06:35:37.551Z,46.63
2022-12-18T06:37:42.284Z,45.00
2022-12-18T06:39:47.099Z,49.22
2022-12-18T06:41:51.842Z,54.25
2022-12-18T06:43:59.723Z,45.38
2022-12-18T06:46:06.087Z,52.67
2022-12-18T06:48:13.763Z,43.47
2022-12-18T06:50:18.625Z,51.60
2022-12-18T06:52:23.420Z,49.28
2022-12-18T06:54:28.214Z,45.40
2022-12-18T06:56:33.068Z,49.63
2022-12-18T06:58:37.909Z,56.58
2022-12-18T07:00:42.813Z,53.53
2022-12-18T07:02:48.420Z,48.63
2022-12-18T07:04:58.778Z,51.83
2022-12-18T07:07:03.625Z,48.40
2022-12-18T07:09:08.418Z,52.47
2022-12-18T07:11:13.214Z,47.55
2022-12-18T07:13:18.081Z,53.13
2022-12-18T07:17:27.636Z,48.72
2022-12-18T07:19:33.401Z,48.67
2022-12-18T07:21:41.181Z,47.30
2022-12-18T07:23:49.237Z,51.40
2022-12-18T07:25:54.263Z,52.67
2022-12-18T07:27:59.027Z,53.13
2022-12-18T07:30:03.949Z,49.22
2022-12-18T07:32:11.529Z,51.35
2022-12-18T07:34:18.448Z,46.60
2022-12-18T07:36:26.777Z,48.60
2022-12-18T07:38:34.501Z,47.90
2022-12-18T07:40:39.268Z,46.13
2022-12-18T07:42:44.170Z,48.75
2022-12-18T07:44:48.953Z,45.15
2022-12-18T07:46:53.736Z,48.63
2022-12-18T07:48:58.528Z,48.08
2022-12-18T07:51:03.787Z,47.75
2022-12-18T07:53:08.558Z,51.80
2022-12-18T07:55:16.066Z,49.70
2022-12-18T07:57:49.014Z,51.63
2022-12-18T07:59:46.130Z,42.88
2022-12-18T08:01:51.099Z,51.15
2022-12-18T08:03:56.130Z,49.35
2022-12-18T08:06:03.121Z,48.95
2022-12-18T08:08:08.301Z,48.97
2022-12-18T08:12:20.479Z,48.40
2022-12-18T08:14:25.273Z,47.85
2022-12-18T08:16:31.360Z,49.97
2022-12-18T08:18:38.893Z,46.38
2022-12-18T08:20:46.797Z,49.00
2022-12-18T08:22:51.665Z,44.97
2022-12-18T08:24:56.517Z,48.08
2022-12-18T08:27:28.329Z,49.20
2022-12-18T08:29:29.169Z,47.55
2022-12-18T08:33:40.864Z,45.47
2022-12-18T08:35:46.431Z,38.30
2022-12-18T08:37:51.511Z,45.83
2022-12-18T08:42:15.909Z,41.13
2022-12-18T08:44:33.158Z,39.45
2022-12-18T08:46:41.328Z,37.65
2022-12-18T08:48:46.216Z,43.85
2022-12-18T08:50:58.526Z,38.63
2022-12-18T08:53:03.676Z,36.83
2022-12-18T08:57:17.169Z,35.80
2022-12-18T08:59:22.644Z,33.40
2022-12-18T09:01:28.295Z,39.72
2022-12-18T09:03:33.676Z,37.42
2022-12-18T09:05:41.330Z,35.15
2022-12-18T09:07:46.201Z,34.95
2022-12-18T09:09:51.105Z,38.67
2022-12-18T09:11:55.981Z,37.08
2022-12-18T09:14:04.346Z,33.85
2022-12-18T09:16:10.910Z,40.85
2022-12-18T09:18:16.212Z,38.22
2022-12-18T09:20:21.690Z,35.25
2022-12-18T09:22:26.486Z,35.25
2022-12-18T09:24:36.735Z,39.00
2022-12-18T09:26:41.549Z,38.63
2022-12-18T09:28:51.905Z,35.17
2022-12-18T09:30:59.278Z,35.10
2022-12-18T09:33:04.486Z,38.95
2022-12-18T09:35:11.514Z,40.53
2022-12-18T09:39:22.451Z,36.92
2022-12-18T09:41:45.241Z,37.33
2022-12-18T09:43:54.464Z,39.30
2022-12-18T09:46:05.581Z,38.83
2022-12-18T09:48:14.856Z,45.05
2022-12-18T09:50:30.729Z,37.63
2022-12-18T09:52:39.624Z,37.75
2022-12-18T09:54:45.725Z,31.50
2022-12-18T09:56:51.021Z,35.17
2022-12-18T09:59:01.946Z,31.27
2022-12-18T10:01:14.776Z,30.00
2022-12-18T10:03:22.072Z,34.83
2022-12-18T10:05:38.108Z,35.85
2022-12-18T10:07:53.753Z,33.35
2022-12-18T10:12:16.323Z,34.20
2022-12-18T10:14:26.496Z,32.88
2022-12-18T10:16:43.176Z,37.15
2022-12-18T10:19:17.527Z,34.45
2022-12-18T10:21:28.601Z,36.42
2022-12-18T10:23:48.008Z,32.97
2022-12-18T10:25:59.292Z,38.03
2022-12-18T10:28:14.373Z,40.97
2022-12-18T10:30:21.286Z,39.83
2022-12-18T10:32:31.253Z,34.47
2022-12-18T10:34:36.446Z,35.60
2022-12-18T10:36:41.963Z,35.67
2022-12-18T10:38:47.142Z,31.75
2022-12-18T10:43:14.606Z,39.60
2022-12-18T10:45:21.337Z,38.95
2022-12-18T10:47:28.748Z,34.00
2022-12-18T10:49:37.960Z,33.72
2022-12-18T10:51:42.958Z,34.00
2022-12-18T10:53:58.466Z,33.65
2022-12-18T10:58:26.315Z,31.25
2022-12-18T11:00:33.511Z,33.38
2022-12-18T11:02:42.108Z,37.25
2022-12-18T11:04:55.393Z,33.92
2022-12-18T11:07:03.189Z,35.25
2022-12-18T11:09:21.816Z,35.42
2022-12-18T11:11:28.036Z,36.10
2022-12-18T11:13:35.116Z,34.95
2022-12-18T11:15:40.939Z,32.80
2022-12-18T11:17:52.104Z,37.05
2022-12-18T11:19:58.215Z,32.90
2022-12-18T11:22:04.719Z,34.00
2022-12-18T11:24:23.802Z,32.70
2022-12-18T11:26:41.425Z,34.78
2022-12-18T11:28:50.137Z,32.53
2022-12-18T11:31:15.750Z,31.38
2022-12-18T11:33:25.959Z,24.38
2022-12-18T11:35:43.110Z,34.13
2022-12-18T11:37:53.478Z,32.45
2022-12-18T11:40:03.234Z,38.00
2022-12-18T11:42:14.316Z,36.75
2022-12-18T11:44:25.867Z,40.03
2022-12-18T11:46:39.644Z,35.63
2022-12-18T11:48:53.691Z,35.05
2022-12-18T11:51:00.291Z,37.00
2022-12-18T11:53:06.599Z,38.65
2022-12-18T11:55:16.619Z,35.67
2022-12-18T11:57:35.327Z,39.15
2022-12-18T11:59:45.611Z,38.40
2022-12-18T12:01:55.624Z,37.55
2022-12-18T12:04:25.384Z,32.42
2022-12-18T12:06:40.945Z,36.22
2022-12-18T12:09:00.458Z,37.88
2022-12-18T12:11:11.015Z,37.50
2022-12-18T12:13:29.799Z,38.20
2022-12-18T12:15:42.736Z,33.95
2022-12-18T12:17:54.981Z,39.17
2022-12-18T12:20:13.040Z,39.38
2022-12-18T12:22:25.926Z,35.88
2022-12-18T12:24:42.367Z,39.20
2022-12-18T12:26:53.836Z,38.92
2022-12-18T12:29:10.597Z,34.30
2022-12-18T12:31:29.460Z,34.88
2022-12-18T12:33:47.860Z,35.85
2022-12-18T12:36:04.792Z,36.33
2022-12-18T12:38:14.665Z,36.88
2022-12-18T12:40:51.203Z,41.53
2022-12-18T12:43:08.923Z,39.38
2022-12-18T12:45:22.815Z,37.30
2022-12-18T12:47:31.430Z,37.03
2022-12-18T12:49:40.826Z,36.67
2022-12-18T12:51:57.883Z,37.55
2022-12-18T12:54:05.617Z,36.17
2022-12-18T12:56:14.958Z,35.25
2022-12-18T12:58:29.210Z,34.72
2022-12-18T13:00:43.136Z,36.78
2022-12-18T13:02:55.198Z,43.05
2022-12-18T13:05:04.632Z,41.72
2022-12-18T13:07:19.530Z,39.20
2022-12-18T13:09:24.764Z,39.13
2022-12-18T13:11:59.986Z,39.50
2022-12-18T13:14:05.773Z,40.15
2022-12-18T13:18:23.628Z,41.60
2022-12-18T13:20:38.101Z,37.38
2022-12-18T13:22:48.740Z,39.95
2022-12-18T13:24:54.404Z,38.03
2022-12-18T13:27:00.355Z,41.90
2022-12-18T13:29:07.139Z,38.03
2022-12-18T13:31:12.063Z,43.88
2022-12-18T13:36:32.107Z,41.00
2022-12-18T13:38:42.366Z,35.05
2022-12-18T13:41:15.405Z,40.75
2022-12-18T13:43:38.905Z,38.65
2022-12-18T13:45:49.660Z,37.13
2022-12-18T13:47:54.626Z,40.17
2022-12-18T13:50:01.005Z,36.05
2022-12-18T13:52:07.114Z,40.75
2022-12-18T13:54:23.496Z,36.90
2022-12-18T13:56:29.897Z,38.55
2022-12-18T13:58:38.041Z,40.83
2022-12-18T14:00:46.154Z,39.42
2022-12-18T14:02:52.610Z,43.88
2022-12-18T14:04:58.768Z,36.53
2022-12-18T14:07:08.191Z,38.58
2022-12-18T14:09:21.596Z,34.30
2022-12-18T14:11:27.086Z,37.25
2022-12-18T14:13:35.892Z,37.13
2022-12-18T14:15:44.597Z,39.30
2022-12-18T14:17:50.660Z,37.35
2022-12-18T14:19:55.609Z,38.47
2022-12-18T14:22:00.464Z,38.70
2022-12-18T14:24:16.788Z,37.85
2022-12-18T14:26:30.387Z,44.67
2022-12-18T14:28:37.982Z,38.15
2022-12-18T14:30:44.550Z,35.42
2022-12-18T14:33:03.668Z,36.97
2022-12-18T14:35:17.319Z,36.15
2022-12-18T14:38:06.651Z,34.88
2022-12-18T14:40:17.448Z,39.60
2022-12-18T14:42:29.267Z,41.65
2022-12-18T14:44:44.288Z,40.97
2022-12-18T14:46:56.041Z,38.85
2022-12-18T14:51:08.718Z,41.85
2022-12-18T14:53:24.964Z,42.42
2022-12-18T14:55:30.215Z,41.38
2022-12-18T14:57:44.612Z,43.75
2022-12-18T14:59:49.734Z,42.35
2022-12-18T15:02:02.348Z,44.88
2022-12-18T15:04:26.474Z,44.28
2022-12-18T15:06:38.198Z,41.38
2022-12-18T15:08:43.002Z,51.33
2022-12-18T15:10:52.161Z,43.03
2022-12-18T15:13:24.387Z,45.40
2022-12-18T15:15:51.226Z,39.10
2022-12-18T15:18:03.904Z,40.50
2022-12-18T15:20:15.156Z,40.63
2022-12-18T15:22:24.650Z,42.10
2022-12-18T15:24:34.676Z,44.00
2022-12-18T15:26:41.291Z,41.60
2022-12-18T15:28:51.994Z,39.65
2022-12-18T15:31:08.681Z,39.00
2022-12-18T15:33:28.659Z,36.40
2022-12-18T15:35:34.782Z,40.90
2022-12-18T15:37:42.000Z,40.35
2022-12-18T15:39:47.113Z,42.33
2022-12-18T15:42:04.893Z,41.28
2022-12-18T15:44:27.553Z,37.90
2022-12-18T15:46:32.555Z,42.92
2022-12-18T15:50:43.460Z,45.20
2022-12-18T15:52:50.754Z,47.83
2022-12-18T15:55:08.113Z,46.47
2022-12-18T15:57:29.333Z,44.30
2022-12-18T15:59:37.198Z,40.83
2022-12-18T16:01:43.191Z,44.95
2022-12-18T16:03:48.149Z,45.30
2022-12-18T16:05:53.091Z,44.42
2022-12-18T16:07:59.283Z,44.78
2022-12-18T16:10:04.165Z,46.40
2022-12-18T16:14:20.635Z,46.20
2022-12-18T16:16:28.152Z,42.60
2022-12-18T16:18:33.984Z,41.65
2022-12-18T16:20:42.246Z,42.45
2022-12-18T16:22:48.889Z,43.63
2022-12-18T16:24:54.411Z,47.33
2022-12-18T16:27:01.061Z,46.35
2022-12-18T16:29:05.955Z,48.22
2022-12-18T16:31:15.163Z,42.42
2022-12-18T16:33:22.564Z,41.90
2022-12-18T16:35:28.670Z,46.53
2022-12-18T16:37:33.518Z,51.15
2022-12-18T16:41:45.993Z,47.15
2022-12-18T16:43:54.839Z,51.10
2022-12-18T16:46:02.470Z,46.67
2022-12-18T16:48:07.921Z,47.78
2022-12-18T16:50:15.685Z,45.17
2022-12-18T16:52:20.573Z,47.15
2022-12-18T16:54:25.552Z,52.30
2022-12-18T16:56:30.646Z,48.33
2022-12-18T17:00:43.972Z,49.92
2022-12-18T17:02:48.964Z,45.35
2022-12-18T17:04:57.130Z,49.45
2022-12-18T17:07:04.910Z,53.95
2022-12-18T17:09:11.713Z,53.50
2022-12-18T17:11:16.816Z,51.50
2022-12-18T17:13:26.128Z,47.63
2022-12-18T17:15:30.952Z,46.25
2022-12-18T17:17:36.677Z,43.83
2022-12-18T17:19:45.269Z,49.55
2022-12-18T17:21:52.624Z,48.17
2022-12-18T17:24:02.442Z,47.88
2022-12-18T17:26:08.393Z,46.72
2022-12-18T17:28:13.971Z,53.00
2022-12-18T17:30:18.878Z,50.28
2022-12-18T17:32:24.614Z,56.47
2022-12-18T17:34:29.772Z,44.47
2022-12-18T17:36:35.602Z,44.83
2022-12-18T17:40:50.416Z,57.10
2022-12-18T17:42:56.028Z,46.58
2022-12-18T17:47:06.300Z,48.83
2022-12-18T17:49:11.162Z,52.05
2022-12-18T17:51:18.212Z,50.30
2022-12-18T17:53:23.060Z,52.47
2022-12-18T17:55:28.427Z,52.38
2022-12-18T17:57:38.219Z,49.13
2022-12-18T17:59:43.020Z,52.00
2022-12-18T18:01:48.059Z,51.70
2022-12-18T18:03:54.133Z,57.00
2022-12-18T18:05:59.188Z,47.38
2022-12-18T18:10:10.487Z,53.33
2022-12-18T18:12:27.730Z,51.92
2022-12-18T18:14:35.618Z,47.78
2022-12-18T18:16:43.079Z,53.90
2022-12-18T18:18:47.951Z,46.50
2022-12-18T18:20:53.972Z,45.38
2022-12-18T18:22:59.420Z,48.17
2022-12-18T18:25:04.937Z,55.20
2022-12-18T18:27:10.351Z,48.28
2022-12-18T18:29:18.021Z,46.50
2022-12-18T18:31:39.681Z,50.80
2022-12-18T18:33:45.986Z,48.28
2022-12-18T18:35:54.766Z,48.85
2022-12-18T18:37:59.767Z,51.55
2022-12-18T18:40:04.589Z,53.63
2022-12-18T18:42:09.427Z,47.75
2022-12-18T18:44:14.569Z,47.45
2022-12-18T18:46:19.679Z,47.35
2022-12-18T18:48:27.356Z,51.13
2022-12-18T18:50:34.910Z,50.65
2022-12-18T18:52:39.918Z,49.15
2022-12-18T18:55:10.742Z,49.90
2022-12-18T18:57:20.424Z,48.30
2022-12-18T18:59:31.370Z,39.23
2022-12-18T19:01:39.595Z,46.95
2022-12-18T19:03:48.214Z,49.65
2022-12-18T19:05:55.861Z,49.75
2022-12-18T19:08:03.088Z,49.83
2022-12-18T19:10:09.215Z,51.40
2022-12-18T19:12:26.547Z,61.08
2022-12-18T19:14:31.970Z,51.67
2022-12-18T19:16:38.383Z,48.42
2022-12-18T19:18:43.921Z,50.20
2022-12-18T19:21:01.605Z,48.70
2022-12-18T19:23:06.765Z,46.80
2022-12-18T19:27:20.247Z,51.88
2022-12-18T19:29:25.571Z,50.13
2022-12-18T19:33:44.024Z,49.80
2022-12-18T19:35:49.215Z,43.67
2022-12-18T19:37:56.648Z,49.10
2022-12-18T19:40:02.659Z,45.88
2022-12-18T19:42:14.060Z,48.72
2022-12-18T19:44:20.429Z,52.05
2022-12-18T19:46:26.588Z,45.55
2022-12-18T19:48:31.451Z,51.28
2022-12-18T19:50:36.700Z,49.92
2022-12-18T19:52:41.460Z,43.40
2022-12-18T19:56:53.898Z,53.60
2022-12-18T19:58:59.249Z,47.10
2022-12-18T20:01:04.163Z,46.70
2022-12-18T20:03:21.620Z,47.75
2022-12-18T20:05:28.795Z,45.78
2022-12-18T20:07:34.019Z,49.22
2022-12-18T20:09:40.544Z,45.53
2022-12-18T20:11:48.969Z,47.13
2022-12-18T20:13:54.207Z,44.83
2022-12-18T20:15:59.308Z,44.70
2022-12-18T20:18:04.185Z,44.25
2022-12-18T20:20:10.210Z,46.58
2022-12-18T20:22:15.111Z,42.67
2022-12-18T20:24:19.949Z,43.15
2022-12-18T20:26:24.926Z,44.60
2022-12-18T20:28:33.331Z,44.72
2022-12-18T20:30:41.385Z,41.58
2022-12-18T20:32:46.135Z,43.05
2022-12-18T20:34:50.924Z,43.00
2022-12-18T20:36:56.837Z,44.17
2022-12-18T20:39:02.785Z,40.58
2022-12-18T20:41:11.849Z,41.03
2022-12-18T20:43:17.493Z,39.45
2022-12-18T20:45:24.981Z,37.15
2022-12-18T20:47:29.861Z,39.42
2022-12-18T20:49:34.643Z,38.67
2022-12-18T20:51:39.615Z,40.45
2022-12-18T20:53:45.622Z,43.13
2022-12-18T20:55:50.566Z,39.53
2022-12-18T20:57:55.515Z,40.67
2022-12-18T21:00:00.509Z,40.40
2022-12-18T21:04:12.999Z,36.88
2022-12-18T21:06:20.987Z,40.30
2022-12-18T21:08:25.896Z,44.13
2022-12-18T21:10:30.703Z,38.70
2022-12-18T21:14:55.703Z,37.30
2022-12-18T21:17:02.365Z,38.00
2022-12-18T21:19:10.034Z,38.70
2022-12-18T21:21:14.883Z,42.63
2022-12-18T21:25:25.259Z,38.13
2022-12-18T21:27:30.660Z,37.88
2022-12-18T21:29:35.950Z,37.08
2022-12-18T21:31:43.039Z,36.85
2022-12-18T21:33:47.835Z,36.75
2022-12-18T21:35:55.845Z,39.42
2022-12-18T21:38:01.427Z,31.58
2022-12-18T21:40:10.154Z,38.25
2022-12-18T21:42:27.711Z,37.22
2022-12-18T21:44:33.970Z,36.47
2022-12-18T21:46:54.866Z,42.40
2022-12-18T21:49:01.862Z,29.95
2022-12-18T21:51:09.488Z,37.50
2022-12-18T21:53:14.287Z,35.05
2022-12-18T21:55:19.286Z,39.25
2022-12-18T21:57:24.094Z,35.85
2022-12-18T21:59:30.580Z,38.47
2022-12-18T22:01:37.073Z,37.78
2022-12-18T22:03:42.709Z,37.13
2022-12-18T22:05:50.593Z,41.33
2022-12-18T22:08:11.990Z,30.25
2022-12-18T22:10:16.987Z,36.08
2022-12-18T22:12:35.664Z,37.72
2022-12-18T22:14:41.734Z,34.47
2022-12-18T22:16:46.997Z,39.33
2022-12-18T22:18:52.823Z,38.90
2022-12-18T22:21:04.467Z,34.00
2022-12-18T22:23:13.129Z,35.38
2022-12-18T22:25:18.066Z,38.03
2022-12-18T22:27:22.869Z,36.33
2022-12-18T22:29:40.612Z,39.60
2022-12-18T22:31:45.582Z,33.33
2022-12-18T22:33:51.226Z,38.72
2022-12-18T22:35:56.027Z,33.92
2022-12-18T22:38:06.345Z,35.25
2022-12-18T22:40:24.105Z,34.42
2022-12-18T22:42:30.295Z,34.80
2022-12-18T22:44:35.050Z,33.47
2022-12-18T22:46:41.868Z,37.45
2022-12-18T22:48:47.235Z,38.25
2022-12-18T22:50:53.436Z,37.33
2022-12-18T22:53:04.333Z,37.33
2022-12-18T22:55:10.539Z,34.13
2022-12-18T22:57:18.063Z,36.50
2022-12-18T22:59:25.045Z,38.05
2022-12-18T23:01:31.930Z,34.72
2022-12-18T23:03:38.262Z,33.85
2022-12-18T23:05:43.121Z,34.72
2022-12-18T23:07:48.189Z,37.28
2022-12-18T23:12:06.757Z,35.28
2022-12-18T23:14:14.849Z,37.22
2022-12-18T23:16:21.214Z,40.92
2022-12-18T23:18:26.230Z,36.47
2022-12-18T23:20:31.030Z,34.08
2022-12-18T23:22:35.905Z,37.28
2022-12-18T23:26:45.462Z,35.95
2022-12-18T23:28:50.603Z,37.15
2022-12-18T23:33:08.391Z,36.17
2022-12-18T23:35:14.213Z,39.20
2022-12-18T23:37:49.775Z,38.72
2022-12-18T23:39:46.184Z,37.38
2022-12-18T23:41:50.968Z,33.85
2022-12-18T23:43:57.503Z,35.53
2022-12-18T23:46:05.062Z,34.17
2022-12-18T23:48:09.912Z,38.53
2022-12-18T23:50:14.695Z,39.05
2022-12-18T23:52:19.538Z,36.75
2022-12-18T23:54:32.877Z,39.10
2022-12-18T23:56:38.995Z,36.65
2022-12-18T23:58:46.201Z,36.53
